sensor_id;sensor_type;location;lat;lon;timestamp;temperature;humidity
10121;DHT22;5100;45.176;5.714;2022-12-10T00:01:34;9.90;73.20
10121;DHT22;5100;45.176;5.714;2022-12-10T00:04:01;9.90;73.20
10121;DHT22;5100;45.176;5.714;2022-12-10T00:06:29;9.90;73.20
10121;DHT22;5100;45.176;5.714;2022-12-10T00:08:55;9.90;72.90
10121;DHT22;5100;45.176;5.714;2022-12-10T00:11:22;9.90;72.80
10121;DHT22;5100;45.176;5.714;2022-12-10T00:13:50;9.80;72.80
10121;DHT22;5100;45.176;5.714;2022-12-10T00:16:17;9.80;72.80
10121;DHT22;5100;45.176;5.714;2022-12-10T00:18:44;9.80;72.90
10121;DHT22;5100;45.176;5.714;2022-12-10T00:21:16;9.80;73.00
10121;DHT22;5100;45.176;5.714;2022-12-10T00:23:43;9.80;72.90
10121;DHT22;5100;45.176;5.714;2022-12-10T00:26:15;9.80;72.70
10121;DHT22;5100;45.176;5.714;2022-12-10T00:28:42;9.80;72.40
10121;DHT22;5100;45.176;5.714;2022-12-10T00:31:14;9.80;72.10
10121;DHT22;5100;45.176;5.714;2022-12-10T00:33:42;9.80;71.90
10121;DHT22;5100;45.176;5.714;2022-12-10T00:36:12;9.80;71.60
10121;DHT22;5100;45.176;5.714;2022-12-10T00:38:39;9.80;71.50
10121;DHT22;5100;45.176;5.714;2022-12-10T00:41:05;9.80;71.40
10121;DHT22;5100;45.176;5.714;2022-12-10T00:43:33;9.80;71.20
10121;DHT22;5100;45.176;5.714;2022-12-10T00:45:59;9.80;71.20
10121;DHT22;5100;45.176;5.714;2022-12-10T00:48:25;9.80;71.10
10121;DHT22;5100;45.176;5.714;2022-12-10T00:51:00;9.80;70.90
10121;DHT22;5100;45.176;5.714;2022-12-10T00:53:27;9.80;70.70
10121;DHT22;5100;45.176;5.714;2022-12-10T00:55:54;9.80;70.50
10121;DHT22;5100;45.176;5.714;2022-12-10T00:58:21;9.70;70.40
10121;DHT22;5100;45.176;5.714;2022-12-10T01:00:48;9.70;70.40
10121;DHT22;5100;45.176;5.714;2022-12-10T01:03:14;9.70;70.20
10121;DHT22;5100;45.176;5.714;2022-12-10T01:05:40;9.70;70.20
10121;DHT22;5100;45.176;5.714;2022-12-10T01:08:06;9.70;70.10
10121;DHT22;5100;45.176;5.714;2022-12-10T01:10:32;9.70;70.10
10121;DHT22;5100;45.176;5.714;2022-12-10T01:12:58;9.70;70.20
10121;DHT22;5100;45.176;5.714;2022-12-10T01:15:24;9.70;70.20
10121;DHT22;5100;45.176;5.714;2022-12-10T01:17:50;9.70;70.20
10121;DHT22;5100;45.176;5.714;2022-12-10T01:20:16;9.60;70.30
10121;DHT22;5100;45.176;5.714;2022-12-10T01:22:42;9.70;70.30
10121;DHT22;5100;45.176;5.714;2022-12-10T01:25:08;9.60;70.20
10121;DHT22;5100;45.176;5.714;2022-12-10T01:27:34;9.60;70.10
10121;DHT22;5100;45.176;5.714;2022-12-10T01:30:01;9.60;70.20
10121;DHT22;5100;45.176;5.714;2022-12-10T01:32:27;9.60;70.20
10121;DHT22;5100;45.176;5.714;2022-12-10T01:34:53;9.60;70.20
10121;DHT22;5100;45.176;5.714;2022-12-10T01:37:19;9.60;70.20
10121;DHT22;5100;45.176;5.714;2022-12-10T01:39:45;9.60;70.20
10121;DHT22;5100;45.176;5.714;2022-12-10T01:42:13;9.60;70.30
10121;DHT22;5100;45.176;5.714;2022-12-10T01:47:09;9.60;70.70
10121;DHT22;5100;45.176;5.714;2022-12-10T01:49:39;9.60;70.70
10121;DHT22;5100;45.176;5.714;2022-12-10T01:52:07;9.60;70.60
10121;DHT22;5100;45.176;5.714;2022-12-10T01:54:38;9.60;70.70
10121;DHT22;5100;45.176;5.714;2022-12-10T01:59:35;9.60;70.70
10121;DHT22;5100;45.176;5.714;2022-12-10T02:02:08;9.60;70.80
10121;DHT22;5100;45.176;5.714;2022-12-10T02:05:01;9.50;70.80
10121;DHT22;5100;45.176;5.714;2022-12-10T02:08:03;9.50;70.90
10121;DHT22;5100;45.176;5.714;2022-12-10T02:15:51;9.50;71.10
10121;DHT22;5100;45.176;5.714;2022-12-10T02:18:26;9.50;71.30
10121;DHT22;5100;45.176;5.714;2022-12-10T02:21:03;9.50;71.40
10121;DHT22;5100;45.176;5.714;2022-12-10T02:23:39;9.50;71.40
10121;DHT22;5100;45.176;5.714;2022-12-10T02:31:53;9.50;71.50
10121;DHT22;5100;45.176;5.714;2022-12-10T02:34:22;9.50;71.50
10121;DHT22;5100;45.176;5.714;2022-12-10T02:36:51;9.50;71.50
10121;DHT22;5100;45.176;5.714;2022-12-10T02:39:23;9.50;71.20
10121;DHT22;5100;45.176;5.714;2022-12-10T02:41:53;9.50;71.20
10121;DHT22;5100;45.176;5.714;2022-12-10T02:44:21;9.50;71.00
10121;DHT22;5100;45.176;5.714;2022-12-10T02:46:50;9.50;71.00
10121;DHT22;5100;45.176;5.714;2022-12-10T02:49:18;9.50;70.90
10121;DHT22;5100;45.176;5.714;2022-12-10T02:51:44;9.40;70.80
10121;DHT22;5100;45.176;5.714;2022-12-10T02:54:42;9.40;70.80
10121;DHT22;5100;45.176;5.714;2022-12-10T03:00:12;9.40;71.20
10121;DHT22;5100;45.176;5.714;2022-12-10T03:05:23;9.40;72.40
10121;DHT22;5100;45.176;5.714;2022-12-10T03:11:17;9.40;73.40
10121;DHT22;5100;45.176;5.714;2022-12-10T03:14:07;9.30;73.40
10121;DHT22;5100;45.176;5.714;2022-12-10T03:16:58;9.30;73.40
10121;DHT22;5100;45.176;5.714;2022-12-10T03:19:32;9.30;73.40
10121;DHT22;5100;45.176;5.714;2022-12-10T03:22:00;9.20;73.20
10121;DHT22;5100;45.176;5.714;2022-12-10T03:24:27;9.20;73.20
10121;DHT22;5100;45.176;5.714;2022-12-10T03:26:54;9.20;73.00
10121;DHT22;5100;45.176;5.714;2022-12-10T03:29:36;9.20;72.80
10121;DHT22;5100;45.176;5.714;2022-12-10T03:32:04;9.10;72.60
10121;DHT22;5100;45.176;5.714;2022-12-10T03:34:32;9.10;72.50
10121;DHT22;5100;45.176;5.714;2022-12-10T03:36:58;9.10;72.30
10121;DHT22;5100;45.176;5.714;2022-12-10T03:39:26;9.10;72.20
10121;DHT22;5100;45.176;5.714;2022-12-10T03:41:52;9.10;72.10
10121;DHT22;5100;45.176;5.714;2022-12-10T03:44:29;9.10;72.20
10121;DHT22;5100;45.176;5.714;2022-12-10T03:46:56;9.00;72.10
10121;DHT22;5100;45.176;5.714;2022-12-10T03:49:22;9.00;72.10
10121;DHT22;5100;45.176;5.714;2022-12-10T03:51:48;9.00;72.00
10121;DHT22;5100;45.176;5.714;2022-12-10T03:54:14;9.00;71.80
10121;DHT22;5100;45.176;5.714;2022-12-10T03:56:40;9.00;71.60
10121;DHT22;5100;45.176;5.714;2022-12-10T03:59:06;9.00;71.40
10121;DHT22;5100;45.176;5.714;2022-12-10T04:01:32;9.00;71.20
10121;DHT22;5100;45.176;5.714;2022-12-10T04:03:59;9.00;71.30
10121;DHT22;5100;45.176;5.714;2022-12-10T04:06:25;9.00;71.20
10121;DHT22;5100;45.176;5.714;2022-12-10T04:08:52;9.00;71.20
10121;DHT22;5100;45.176;5.714;2022-12-10T04:11:22;8.90;71.20
10121;DHT22;5100;45.176;5.714;2022-12-10T04:13:48;8.90;71.10
10121;DHT22;5100;45.176;5.714;2022-12-10T04:16:34;8.90;71.20
10121;DHT22;5100;45.176;5.714;2022-12-10T04:19:01;8.90;71.20
10121;DHT22;5100;45.176;5.714;2022-12-10T04:21:29;8.90;71.10
10121;DHT22;5100;45.176;5.714;2022-12-10T04:24:16;8.90;70.80
10121;DHT22;5100;45.176;5.714;2022-12-10T04:27:07;8.80;70.70
10121;DHT22;5100;45.176;5.714;2022-12-10T04:29:34;8.80;70.40
10121;DHT22;5100;45.176;5.714;2022-12-10T04:32:00;8.80;70.50
10121;DHT22;5100;45.176;5.714;2022-12-10T04:34:26;8.80;70.30
10121;DHT22;5100;45.176;5.714;2022-12-10T04:36:52;8.80;70.20
10121;DHT22;5100;45.176;5.714;2022-12-10T04:39:19;8.80;70.30
10121;DHT22;5100;45.176;5.714;2022-12-10T04:41:46;8.80;70.40
10121;DHT22;5100;45.176;5.714;2022-12-10T04:44:13;8.70;70.30
10121;DHT22;5100;45.176;5.714;2022-12-10T04:46:39;8.70;70.20
10121;DHT22;5100;45.176;5.714;2022-12-10T04:49:05;8.70;70.30
10121;DHT22;5100;45.176;5.714;2022-12-10T04:51:32;8.70;70.10
10121;DHT22;5100;45.176;5.714;2022-12-10T04:53:58;8.70;70.20
10121;DHT22;5100;45.176;5.714;2022-12-10T04:56:24;8.70;70.00
10121;DHT22;5100;45.176;5.714;2022-12-10T04:58:50;8.70;69.80
10121;DHT22;5100;45.176;5.714;2022-12-10T05:01:16;8.70;69.80
10121;DHT22;5100;45.176;5.714;2022-12-10T05:03:45;8.70;69.70
10121;DHT22;5100;45.176;5.714;2022-12-10T05:06:13;8.60;69.80
10121;DHT22;5100;45.176;5.714;2022-12-10T05:08:40;8.60;69.80
10121;DHT22;5100;45.176;5.714;2022-12-10T05:11:20;8.60;69.60
10121;DHT22;5100;45.176;5.714;2022-12-10T05:13:46;8.60;69.90
10121;DHT22;5100;45.176;5.714;2022-12-10T05:16:14;8.60;69.90
10121;DHT22;5100;45.176;5.714;2022-12-10T05:18:40;8.50;70.10
10121;DHT22;5100;45.176;5.714;2022-12-10T05:21:10;8.50;69.80
10121;DHT22;5100;45.176;5.714;2022-12-10T05:23:38;8.50;69.50
10121;DHT22;5100;45.176;5.714;2022-12-10T05:28:39;8.50;69.40
10121;DHT22;5100;45.176;5.714;2022-12-10T05:31:12;8.50;69.80
10121;DHT22;5100;45.176;5.714;2022-12-10T05:33:38;8.50;70.00
10121;DHT22;5100;45.176;5.714;2022-12-10T05:36:04;8.50;70.10
10121;DHT22;5100;45.176;5.714;2022-12-10T05:38:32;8.50;70.10
10121;DHT22;5100;45.176;5.714;2022-12-10T05:41:08;8.50;70.20
10121;DHT22;5100;45.176;5.714;2022-12-10T05:43:34;8.50;70.00
10121;DHT22;5100;45.176;5.714;2022-12-10T05:46:02;8.50;69.90
10121;DHT22;5100;45.176;5.714;2022-12-10T05:48:29;8.50;69.60
10121;DHT22;5100;45.176;5.714;2022-12-10T05:50:55;8.50;69.70
10121;DHT22;5100;45.176;5.714;2022-12-10T05:53:22;8.50;69.50
10121;DHT22;5100;45.176;5.714;2022-12-10T05:55:48;8.40;69.70
10121;DHT22;5100;45.176;5.714;2022-12-10T05:58:17;8.40;69.30
10121;DHT22;5100;45.176;5.714;2022-12-10T06:00:43;8.40;69.40
10121;DHT22;5100;45.176;5.714;2022-12-10T06:03:09;8.40;69.20
10121;DHT22;5100;45.176;5.714;2022-12-10T06:05:39;8.40;69.10
10121;DHT22;5100;45.176;5.714;2022-12-10T06:08:06;8.40;69.20
10121;DHT22;5100;45.176;5.714;2022-12-10T06:10:38;8.30;69.20
10121;DHT22;5100;45.176;5.714;2022-12-10T06:13:04;8.30;69.50
10121;DHT22;5100;45.176;5.714;2022-12-10T06:15:31;8.30;69.50
10121;DHT22;5100;45.176;5.714;2022-12-10T06:17:59;8.30;69.40
10121;DHT22;5100;45.176;5.714;2022-12-10T06:20:25;8.30;69.40
10121;DHT22;5100;45.176;5.714;2022-12-10T06:22:51;8.30;69.50
10121;DHT22;5100;45.176;5.714;2022-12-10T06:25:18;8.30;69.60
10121;DHT22;5100;45.176;5.714;2022-12-10T06:27:44;8.30;69.40
10121;DHT22;5100;45.176;5.714;2022-12-10T06:30:11;8.30;69.30
10121;DHT22;5100;45.176;5.714;2022-12-10T06:32:37;8.30;69.30
10121;DHT22;5100;45.176;5.714;2022-12-10T06:35:03;8.30;68.90
10121;DHT22;5100;45.176;5.714;2022-12-10T06:37:29;8.20;69.00
10121;DHT22;5100;45.176;5.714;2022-12-10T06:39:56;8.30;69.00
10121;DHT22;5100;45.176;5.714;2022-12-10T06:42:22;8.20;69.00
10121;DHT22;5100;45.176;5.714;2022-12-10T06:44:47;8.20;69.00
10121;DHT22;5100;45.176;5.714;2022-12-10T06:47:14;8.20;68.90
10121;DHT22;5100;45.176;5.714;2022-12-10T06:49:40;8.20;69.00
10121;DHT22;5100;45.176;5.714;2022-12-10T06:52:07;8.20;69.20
10121;DHT22;5100;45.176;5.714;2022-12-10T06:54:33;8.20;69.30
10121;DHT22;5100;45.176;5.714;2022-12-10T06:57:00;8.20;69.20
10121;DHT22;5100;45.176;5.714;2022-12-10T06:59:25;8.30;68.90
10121;DHT22;5100;45.176;5.714;2022-12-10T07:01:52;8.30;68.70
10121;DHT22;5100;45.176;5.714;2022-12-10T07:04:18;8.30;68.50
10121;DHT22;5100;45.176;5.714;2022-12-10T07:06:44;8.30;68.30
10121;DHT22;5100;45.176;5.714;2022-12-10T07:09:10;8.40;68.20
10121;DHT22;5100;45.176;5.714;2022-12-10T07:11:36;8.40;68.20
10121;DHT22;5100;45.176;5.714;2022-12-10T07:14:02;8.30;68.20
10121;DHT22;5100;45.176;5.714;2022-12-10T07:16:31;8.30;68.20
10121;DHT22;5100;45.176;5.714;2022-12-10T07:18:59;8.30;68.10
10121;DHT22;5100;45.176;5.714;2022-12-10T07:21:28;8.30;68.20
10121;DHT22;5100;45.176;5.714;2022-12-10T07:23:56;8.30;68.30
10121;DHT22;5100;45.176;5.714;2022-12-10T07:26:32;8.30;68.60
10121;DHT22;5100;45.176;5.714;2022-12-10T07:28:59;8.20;68.70
10121;DHT22;5100;45.176;5.714;2022-12-10T07:31:25;8.30;68.50
10121;DHT22;5100;45.176;5.714;2022-12-10T07:33:52;8.30;68.40
10121;DHT22;5100;45.176;5.714;2022-12-10T07:36:20;8.20;68.40
10121;DHT22;5100;45.176;5.714;2022-12-10T07:38:48;8.20;68.40
10121;DHT22;5100;45.176;5.714;2022-12-10T07:41:15;8.20;68.20
10121;DHT22;5100;45.176;5.714;2022-12-10T07:43:43;8.20;68.30
10121;DHT22;5100;45.176;5.714;2022-12-10T07:46:16;8.20;68.30
10121;DHT22;5100;45.176;5.714;2022-12-10T07:48:46;8.20;68.30
10121;DHT22;5100;45.176;5.714;2022-12-10T07:51:13;8.20;68.00
10121;DHT22;5100;45.176;5.714;2022-12-10T07:53:39;8.20;68.00
10121;DHT22;5100;45.176;5.714;2022-12-10T07:56:07;8.20;68.00
10121;DHT22;5100;45.176;5.714;2022-12-10T07:58:33;8.20;68.00
10121;DHT22;5100;45.176;5.714;2022-12-10T08:01:10;8.10;68.00
10121;DHT22;5100;45.176;5.714;2022-12-10T08:03:37;8.10;68.10
10121;DHT22;5100;45.176;5.714;2022-12-10T08:06:15;8.20;68.00
10121;DHT22;5100;45.176;5.714;2022-12-10T08:08:43;8.10;67.80
10121;DHT22;5100;45.176;5.714;2022-12-10T08:11:09;8.10;67.70
10121;DHT22;5100;45.176;5.714;2022-12-10T08:13:36;8.20;67.60
10121;DHT22;5100;45.176;5.714;2022-12-10T08:16:04;8.20;67.50
10121;DHT22;5100;45.176;5.714;2022-12-10T08:18:31;8.10;67.70
10121;DHT22;5100;45.176;5.714;2022-12-10T08:20:58;8.10;67.60
10121;DHT22;5100;45.176;5.714;2022-12-10T08:23:24;8.10;67.40
10121;DHT22;5100;45.176;5.714;2022-12-10T08:25:50;8.10;67.60
10121;DHT22;5100;45.176;5.714;2022-12-10T08:28:16;8.10;67.60
10121;DHT22;5100;45.176;5.714;2022-12-10T08:30:49;8.10;67.60
10121;DHT22;5100;45.176;5.714;2022-12-10T08:33:15;8.20;67.60
10121;DHT22;5100;45.176;5.714;2022-12-10T08:35:41;8.10;67.50
10121;DHT22;5100;45.176;5.714;2022-12-10T08:38:07;8.10;67.40
10121;DHT22;5100;45.176;5.714;2022-12-10T08:40:33;8.10;67.70
10121;DHT22;5100;45.176;5.714;2022-12-10T08:43:00;8.10;67.50
10121;DHT22;5100;45.176;5.714;2022-12-10T08:45:26;8.10;67.20
10121;DHT22;5100;45.176;5.714;2022-12-10T08:48:05;8.10;67.30
10121;DHT22;5100;45.176;5.714;2022-12-10T08:50:31;8.10;67.50
10121;DHT22;5100;45.176;5.714;2022-12-10T08:52:57;8.10;67.40
10121;DHT22;5100;45.176;5.714;2022-12-10T08:55:23;8.10;67.20
10121;DHT22;5100;45.176;5.714;2022-12-10T08:57:50;8.10;67.00
10121;DHT22;5100;45.176;5.714;2022-12-10T09:00:16;8.10;67.20
10121;DHT22;5100;45.176;5.714;2022-12-10T09:02:42;8.10;66.70
10121;DHT22;5100;45.176;5.714;2022-12-10T09:05:08;8.10;66.80
10121;DHT22;5100;45.176;5.714;2022-12-10T09:07:34;8.10;66.90
10121;DHT22;5100;45.176;5.714;2022-12-10T09:10:00;8.10;67.00
10121;DHT22;5100;45.176;5.714;2022-12-10T09:12:26;8.10;66.70
10121;DHT22;5100;45.176;5.714;2022-12-10T09:14:52;8.10;66.80
10121;DHT22;5100;45.176;5.714;2022-12-10T09:17:18;8.10;66.90
10121;DHT22;5100;45.176;5.714;2022-12-10T09:19:44;8.10;66.60
10121;DHT22;5100;45.176;5.714;2022-12-10T09:22:10;8.10;66.70
10121;DHT22;5100;45.176;5.714;2022-12-10T09:24:36;8.10;67.00
10121;DHT22;5100;45.176;5.714;2022-12-10T09:27:03;8.10;66.90
10121;DHT22;5100;45.176;5.714;2022-12-10T09:29:29;8.10;66.60
10121;DHT22;5100;45.176;5.714;2022-12-10T09:31:55;8.10;66.80
10121;DHT22;5100;45.176;5.714;2022-12-10T09:34:21;8.10;66.70
10121;DHT22;5100;45.176;5.714;2022-12-10T09:36:47;8.10;66.90
10121;DHT22;5100;45.176;5.714;2022-12-10T09:39:13;8.10;66.50
10121;DHT22;5100;45.176;5.714;2022-12-10T09:50:26;8.20;66.30
10121;DHT22;5100;45.176;5.714;2022-12-10T09:52:55;8.30;66.10
10121;DHT22;5100;45.176;5.714;2022-12-10T09:55:44;8.30;66.10
10121;DHT22;5100;45.176;5.714;2022-12-10T09:58:31;8.30;65.80
10121;DHT22;5100;45.176;5.714;2022-12-10T10:01:04;8.30;65.70
10121;DHT22;5100;45.176;5.714;2022-12-10T10:03:36;8.30;65.80
10121;DHT22;5100;45.176;5.714;2022-12-10T10:06:03;8.30;65.80
10121;DHT22;5100;45.176;5.714;2022-12-10T10:08:31;8.30;65.80
10121;DHT22;5100;45.176;5.714;2022-12-10T10:11:02;8.30;65.90
10121;DHT22;5100;45.176;5.714;2022-12-10T10:16:47;8.30;65.10
10121;DHT22;5100;45.176;5.714;2022-12-10T10:19:17;8.40;65.30
10121;DHT22;5100;45.176;5.714;2022-12-10T10:21:48;8.40;65.20
10121;DHT22;5100;45.176;5.714;2022-12-10T10:24:24;8.40;65.10
10121;DHT22;5100;45.176;5.714;2022-12-10T10:26:57;8.40;65.40
10121;DHT22;5100;45.176;5.714;2022-12-10T10:29:24;8.40;65.20
10121;DHT22;5100;45.176;5.714;2022-12-10T10:34:58;8.40;65.20
10121;DHT22;5100;45.176;5.714;2022-12-10T10:37:40;8.40;65.00
10121;DHT22;5100;45.176;5.714;2022-12-10T10:40:22;8.30;65.20
10121;DHT22;5100;45.176;5.714;2022-12-10T10:42:52;8.30;65.10
10121;DHT22;5100;45.176;5.714;2022-12-10T10:45:47;8.30;64.70
10121;DHT22;5100;45.176;5.714;2022-12-10T10:48:25;8.30;64.50
10121;DHT22;5100;45.176;5.714;2022-12-10T10:53:52;8.30;64.60
10121;DHT22;5100;45.176;5.714;2022-12-10T10:56:28;8.40;64.20
10121;DHT22;5100;45.176;5.714;2022-12-10T10:59:18;8.40;63.80
10121;DHT22;5100;45.176;5.714;2022-12-10T11:02:04;8.40;63.60
10121;DHT22;5100;45.176;5.714;2022-12-10T11:04:48;8.40;63.00
10121;DHT22;5100;45.176;5.714;2022-12-10T11:07:22;8.40;63.00
10121;DHT22;5100;45.176;5.714;2022-12-10T11:09:53;8.40;62.60
10121;DHT22;5100;45.176;5.714;2022-12-10T11:12:35;8.30;62.70
10121;DHT22;5100;45.176;5.714;2022-12-10T11:17:49;8.30;62.90
10121;DHT22;5100;45.176;5.714;2022-12-10T11:20:19;8.30;62.90
10121;DHT22;5100;45.176;5.714;2022-12-10T11:22:50;8.30;62.60
10121;DHT22;5100;45.176;5.714;2022-12-10T11:25:19;8.30;62.60
10121;DHT22;5100;45.176;5.714;2022-12-10T11:28:05;8.30;62.80
10121;DHT22;5100;45.176;5.714;2022-12-10T11:30:43;8.30;62.60
10121;DHT22;5100;45.176;5.714;2022-12-10T11:39:01;8.20;62.60
10121;DHT22;5100;45.176;5.714;2022-12-10T11:50:18;8.20;62.50
10121;DHT22;5100;45.176;5.714;2022-12-10T11:53:10;8.10;62.60
10121;DHT22;5100;45.176;5.714;2022-12-10T11:55:42;8.10;62.80
10121;DHT22;5100;45.176;5.714;2022-12-10T11:58:42;8.10;62.60
10121;DHT22;5100;45.176;5.714;2022-12-10T12:12:58;8.10;62.50
10121;DHT22;5100;45.176;5.714;2022-12-10T12:15:31;8.10;62.40
10121;DHT22;5100;45.176;5.714;2022-12-10T12:18:04;8.10;62.70
10121;DHT22;5100;45.176;5.714;2022-12-10T12:20:39;8.10;62.50
10121;DHT22;5100;45.176;5.714;2022-12-10T12:23:28;8.10;62.70
10121;DHT22;5100;45.176;5.714;2022-12-10T12:26:00;8.10;62.60
10121;DHT22;5100;45.176;5.714;2022-12-10T12:28:39;8.00;62.50
10121;DHT22;5100;45.176;5.714;2022-12-10T12:31:31;8.00;62.70
10121;DHT22;5100;45.176;5.714;2022-12-10T12:34:10;8.00;62.80
10121;DHT22;5100;45.176;5.714;2022-12-10T12:36:39;8.00;62.80
10121;DHT22;5100;45.176;5.714;2022-12-10T12:41:53;8.00;62.90
10121;DHT22;5100;45.176;5.714;2022-12-10T12:44:29;8.00;63.00
10121;DHT22;5100;45.176;5.714;2022-12-10T12:47:11;8.00;62.90
10121;DHT22;5100;45.176;5.714;2022-12-10T12:49:41;8.00;62.90
10121;DHT22;5100;45.176;5.714;2022-12-10T12:52:29;8.00;63.00
10121;DHT22;5100;45.176;5.714;2022-12-10T12:55:02;8.00;63.10
10121;DHT22;5100;45.176;5.714;2022-12-10T12:57:48;8.00;63.30
10121;DHT22;5100;45.176;5.714;2022-12-10T13:00:20;8.00;63.20
10121;DHT22;5100;45.176;5.714;2022-12-10T13:03:24;8.00;63.10
10121;DHT22;5100;45.176;5.714;2022-12-10T13:05:53;8.00;63.00
10121;DHT22;5100;45.176;5.714;2022-12-10T13:22:05;8.00;63.50
10121;DHT22;5100;45.176;5.714;2022-12-10T13:35:18;7.90;62.50
10121;DHT22;5100;45.176;5.714;2022-12-10T13:46:34;7.90;62.10
10121;DHT22;5100;45.176;5.714;2022-12-10T13:49:02;7.90;61.70
10121;DHT22;5100;45.176;5.714;2022-12-10T13:54:33;7.80;61.40
10121;DHT22;5100;45.176;5.714;2022-12-10T13:59:59;7.80;60.60
10121;DHT22;5100;45.176;5.714;2022-12-10T14:03:05;7.80;60.80
10121;DHT22;5100;45.176;5.714;2022-12-10T14:08:32;7.80;60.60
10121;DHT22;5100;45.176;5.714;2022-12-10T14:11:02;7.70;60.50
10121;DHT22;5100;45.176;5.714;2022-12-10T14:13:43;7.70;60.70
10121;DHT22;5100;45.176;5.714;2022-12-10T14:16:13;7.70;60.80
10121;DHT22;5100;45.176;5.714;2022-12-10T14:18:42;7.70;60.90
10121;DHT22;5100;45.176;5.714;2022-12-10T14:21:10;7.70;61.10
10121;DHT22;5100;45.176;5.714;2022-12-10T14:23:47;7.70;61.00
10121;DHT22;5100;45.176;5.714;2022-12-10T14:26:47;7.70;61.10
10121;DHT22;5100;45.176;5.714;2022-12-10T14:31:41;7.70;61.20
10121;DHT22;5100;45.176;5.714;2022-12-10T14:34:12;7.70;61.20
10121;DHT22;5100;45.176;5.714;2022-12-10T14:36:46;7.70;61.10
10121;DHT22;5100;45.176;5.714;2022-12-10T14:39:21;7.70;61.10
10121;DHT22;5100;45.176;5.714;2022-12-10T14:41:51;7.70;61.10
10121;DHT22;5100;45.176;5.714;2022-12-10T14:44:19;7.70;61.10
10121;DHT22;5100;45.176;5.714;2022-12-10T14:46:47;7.70;61.40
10121;DHT22;5100;45.176;5.714;2022-12-10T14:49:20;7.60;61.80
10121;DHT22;5100;45.176;5.714;2022-12-10T14:51:46;7.60;61.80
10121;DHT22;5100;45.176;5.714;2022-12-10T14:54:28;7.60;62.10
10121;DHT22;5100;45.176;5.714;2022-12-10T14:56:55;7.60;62.30
10121;DHT22;5100;45.176;5.714;2022-12-10T14:59:36;7.60;62.20
10121;DHT22;5100;45.176;5.714;2022-12-10T15:02:17;7.60;62.10
10121;DHT22;5100;45.176;5.714;2022-12-10T15:04:46;7.60;62.10
10121;DHT22;5100;45.176;5.714;2022-12-10T15:07:17;7.60;62.30
10121;DHT22;5100;45.176;5.714;2022-12-10T15:09:47;7.60;62.20
10121;DHT22;5100;45.176;5.714;2022-12-10T15:15:19;7.60;62.50
10121;DHT22;5100;45.176;5.714;2022-12-10T15:20:38;7.50;62.90
10121;DHT22;5100;45.176;5.714;2022-12-10T15:28:30;7.50;63.10
10121;DHT22;5100;45.176;5.714;2022-12-10T15:31:30;7.50;63.00
10121;DHT22;5100;45.176;5.714;2022-12-10T15:34:07;7.50;63.20
10121;DHT22;5100;45.176;5.714;2022-12-10T15:36:51;7.50;63.60
10121;DHT22;5100;45.176;5.714;2022-12-10T15:39:27;7.50;63.90
10121;DHT22;5100;45.176;5.714;2022-12-10T15:41:55;7.50;64.00
10121;DHT22;5100;45.176;5.714;2022-12-10T15:44:40;7.50;64.00
10121;DHT22;5100;45.176;5.714;2022-12-10T15:47:22;7.50;63.80
10121;DHT22;5100;45.176;5.714;2022-12-10T15:49:51;7.50;63.70
10121;DHT22;5100;45.176;5.714;2022-12-10T15:52:18;7.50;63.80
10121;DHT22;5100;45.176;5.714;2022-12-10T15:54:48;7.50;64.10
10121;DHT22;5100;45.176;5.714;2022-12-10T15:57:33;7.50;64.30
10121;DHT22;5100;45.176;5.714;2022-12-10T16:00:23;7.50;64.50
10121;DHT22;5100;45.176;5.714;2022-12-10T16:03:04;7.40;64.40
10121;DHT22;5100;45.176;5.714;2022-12-10T16:05:33;7.50;64.20
10121;DHT22;5100;45.176;5.714;2022-12-10T16:10:32;7.50;64.40
10121;DHT22;5100;45.176;5.714;2022-12-10T16:13:05;7.50;64.60
10121;DHT22;5100;45.176;5.714;2022-12-10T16:15:46;7.50;64.70
10121;DHT22;5100;45.176;5.714;2022-12-10T16:18:14;7.50;64.70
10121;DHT22;5100;45.176;5.714;2022-12-10T16:20:40;7.50;64.90
10121;DHT22;5100;45.176;5.714;2022-12-10T16:23:06;7.50;64.80
10121;DHT22;5100;45.176;5.714;2022-12-10T16:25:33;7.50;64.70
10121;DHT22;5100;45.176;5.714;2022-12-10T16:28:01;7.50;64.60
10121;DHT22;5100;45.176;5.714;2022-12-10T16:30:36;7.50;64.80
10121;DHT22;5100;45.176;5.714;2022-12-10T16:33:04;7.50;65.00
10121;DHT22;5100;45.176;5.714;2022-12-10T16:35:30;7.50;64.90
10121;DHT22;5100;45.176;5.714;2022-12-10T16:37:56;7.50;65.00
10121;DHT22;5100;45.176;5.714;2022-12-10T16:40:27;7.50;65.10
10121;DHT22;5100;45.176;5.714;2022-12-10T16:42:54;7.50;65.10
10121;DHT22;5100;45.176;5.714;2022-12-10T16:45:24;7.50;65.00
10121;DHT22;5100;45.176;5.714;2022-12-10T16:47:51;7.40;65.30
10121;DHT22;5100;45.176;5.714;2022-12-10T16:50:18;7.50;65.30
10121;DHT22;5100;45.176;5.714;2022-12-10T16:52:44;7.50;65.30
10121;DHT22;5100;45.176;5.714;2022-12-10T16:55:16;7.40;65.40
10121;DHT22;5100;45.176;5.714;2022-12-10T16:57:44;7.40;65.10
10121;DHT22;5100;45.176;5.714;2022-12-10T17:00:14;7.40;64.90
10121;DHT22;5100;45.176;5.714;2022-12-10T17:02:41;7.40;65.00
10121;DHT22;5100;45.176;5.714;2022-12-10T17:05:35;7.40;64.90
10121;DHT22;5100;45.176;5.714;2022-12-10T17:08:02;7.40;64.80
10121;DHT22;5100;45.176;5.714;2022-12-10T17:10:28;7.40;65.00
10121;DHT22;5100;45.176;5.714;2022-12-10T17:13:14;7.40;65.10
10121;DHT22;5100;45.176;5.714;2022-12-10T17:15:41;7.40;64.90
10121;DHT22;5100;45.176;5.714;2022-12-10T17:18:16;7.40;65.20
10121;DHT22;5100;45.176;5.714;2022-12-10T17:20:44;7.40;65.30
10121;DHT22;5100;45.176;5.714;2022-12-10T17:23:10;7.30;65.10
10121;DHT22;5100;45.176;5.714;2022-12-10T17:25:38;7.30;65.40
10121;DHT22;5100;45.176;5.714;2022-12-10T17:28:05;7.30;65.20
10121;DHT22;5100;45.176;5.714;2022-12-10T17:30:31;7.30;65.40
10121;DHT22;5100;45.176;5.714;2022-12-10T17:32:57;7.30;65.60
10121;DHT22;5100;45.176;5.714;2022-12-10T17:35:24;7.30;65.60
10121;DHT22;5100;45.176;5.714;2022-12-10T17:37:50;7.30;66.00
10121;DHT22;5100;45.176;5.714;2022-12-10T17:40:21;7.30;66.20
10121;DHT22;5100;45.176;5.714;2022-12-10T17:42:48;7.30;66.30
10121;DHT22;5100;45.176;5.714;2022-12-10T17:45:18;7.20;66.30
10121;DHT22;5100;45.176;5.714;2022-12-10T17:47:44;7.20;66.50
10121;DHT22;5100;45.176;5.714;2022-12-10T17:52:43;7.20;66.40
10121;DHT22;5100;45.176;5.714;2022-12-10T17:55:09;7.20;66.10
10121;DHT22;5100;45.176;5.714;2022-12-10T17:57:35;7.20;66.10
10121;DHT22;5100;45.176;5.714;2022-12-10T18:00:04;7.20;66.30
10121;DHT22;5100;45.176;5.714;2022-12-10T18:02:37;7.20;66.20
10121;DHT22;5100;45.176;5.714;2022-12-10T18:05:04;7.20;66.40
10121;DHT22;5100;45.176;5.714;2022-12-10T18:07:30;7.20;66.60
10121;DHT22;5100;45.176;5.714;2022-12-10T18:09:56;7.20;66.40
10121;DHT22;5100;45.176;5.714;2022-12-10T18:12:23;7.20;65.90
10121;DHT22;5100;45.176;5.714;2022-12-10T18:14:49;7.20;65.80
10121;DHT22;5100;45.176;5.714;2022-12-10T18:17:15;7.20;65.90
10121;DHT22;5100;45.176;5.714;2022-12-10T18:19:43;7.20;66.00
10121;DHT22;5100;45.176;5.714;2022-12-10T18:22:09;7.20;65.70
10121;DHT22;5100;45.176;5.714;2022-12-10T18:24:35;7.20;65.80
10121;DHT22;5100;45.176;5.714;2022-12-10T18:27:02;7.20;65.90
10121;DHT22;5100;45.176;5.714;2022-12-10T18:29:28;7.20;66.30
10121;DHT22;5100;45.176;5.714;2022-12-10T18:31:56;7.30;66.50
10121;DHT22;5100;45.176;5.714;2022-12-10T18:34:22;7.30;66.10
10121;DHT22;5100;45.176;5.714;2022-12-10T18:36:49;7.20;66.20
10121;DHT22;5100;45.176;5.714;2022-12-10T18:39:27;7.20;66.40
10121;DHT22;5100;45.176;5.714;2022-12-10T18:41:59;7.20;66.40